Loughrea, Ireland
Current Conditions -  °F | °C
As of 11:00 PM on Wednesday 22 Oct 2014 (Local Time) from EINN Reporting Station
Broken Clouds Broken Clouds  
Wind Chill: 12°   Ceiling: 1400
Heat Index: 12°   Visibility: 6mi
Dew Point: 11°   Wind: 7mph
Humidity: 94%   Direction: 170°S
Pressure: 30.03"   Gusts: NA
Location:  53.2°N, 8.57°W
Report Text: EINN 222300Z 17006KT 9999 SCT011 BKN014 12/11 Q1017 TEMPO 5000 BKN008
Loading
Personal Weather Stations






























Interactive Weather Map
Tropical Storm Tracking
New forecast layout! Learn more

10-Day Weather Forecast

Advertisements
Track Severe Weather on mobile